Time;durP1;ratioP1;P1;durP2;ratioP2;P2;SDS_P1;SDS_P2;PMS_P1;PMS_P2;Temp;Humidity;BMP_temperature;BMP_pressure;BME280_temperature;BME280_humidity;BME280_pressure;Samples;Min_cycle;Max_cycle;Signal;HPM_P1;HPM_P2
2023/04/27 00:00:21;;;;;;;19.52;8.82;;;;;;;5.40;99.79;101983.81;5022126;28;20061;-84
2023/04/27 00:02:46;;;;;;;16.85;8.10;;;;;;;5.40;98.96;101975.47;5007383;28;20021;-85
2023/04/27 00:05:12;;;;;;;17.50;7.80;;;;;;;5.38;99.10;101972.19;5025283;28;20072;-85
2023/04/27 00:07:37;;;;;;;14.55;7.88;;;;;;;5.32;98.65;101962.34;5007304;28;20091;-84
2023/04/27 00:10:03;;;;;;;16.63;7.43;;;;;;;5.23;99.24;101975.34;4991237;28;20025;-85
2023/04/27 00:12:28;;;;;;;16.63;8.30;;;;;;;5.39;98.91;101990.47;5001988;28;20158;-85
2023/04/27 00:14:54;;;;;;;15.30;7.15;;;;;;;5.34;98.50;101981.47;5008446;28;20025;-85
2023/04/27 00:17:19;;;;;;;14.23;7.28;;;;;;;5.35;99.84;101983.91;4997104;28;20033;-85
2023/04/27 00:19:46;;;;;;;16.85;7.40;;;;;;;5.21;100.00;101985.97;5015704;28;20126;-86
2023/04/27 00:22:12;;;;;;;12.05;6.25;;;;;;;5.29;100.00;101990.72;5003053;28;20433;-85
2023/04/27 00:24:38;;;;;;;12.82;6.97;;;;;;;5.29;99.48;101991.56;4987677;28;20029;-86
2023/04/27 00:27:03;;;;;;;14.50;6.22;;;;;;;5.13;99.46;101975.59;5011407;28;20029;-86
2023/04/27 00:29:29;;;;;;;14.43;6.60;;;;;;;5.18;100.00;101978.25;5008120;28;20025;-85
2023/04/27 00:31:54;;;;;;;13.45;6.57;;;;;;;5.26;100.00;101991.38;5026194;28;20029;-85
2023/04/27 00:34:20;;;;;;;14.73;7.57;;;;;;;5.14;99.70;101994.69;5016399;28;20048;-86
2023/04/27 00:36:45;;;;;;;13.85;5.97;;;;;;;5.14;99.86;101983.59;5015864;28;20025;-86
2023/04/27 00:39:10;;;;;;;11.38;6.68;;;;;;;5.07;99.78;101977.66;5014369;28;20549;-85
2023/04/27 00:41:38;;;;;;;14.43;7.10;;;;;;;5.19;100.00;101982.66;5016525;28;20034;-85
2023/04/27 00:44:04;;;;;;;17.58;6.85;;;;;;;5.19;99.52;101996.56;5027544;28;20111;-85
2023/04/27 00:46:30;;;;;;;12.55;6.28;;;;;;;4.97;100.00;101978.72;5011998;28;20025;-85
2023/04/27 00:48:55;;;;;;;15.40;6.40;;;;;;;5.10;100.00;101982.56;5017424;28;20017;-86
2023/04/27 00:51:21;;;;;;;13.98;6.60;;;;;;;4.96;100.00;101979.84;5004924;28;20033;-85
2023/04/27 00:53:47;;;;;;;13.40;6.43;;;;;;;4.94;100.00;101986.88;5024823;28;20111;-86
2023/04/27 00:56:13;;;;;;;18.02;6.30;;;;;;;4.98;100.00;101979.56;5006719;28;20030;-86
2023/04/27 00:58:38;;;;;;;16.92;6.45;;;;;;;4.97;99.91;101972.34;5013164;28;20124;-85
2023/04/27 01:01:04;;;;;;;10.20;6.40;;;;;;;4.90;100.00;101970.00;5012867;28;20029;-85
2023/04/27 01:03:30;;;;;;;11.35;5.47;;;;;;;4.98;99.31;101974.00;5007367;28;20495;-85
2023/04/27 01:05:58;;;;;;;16.45;6.18;;;;;;;4.87;99.58;101970.66;5033328;28;20029;-85
2023/04/27 01:08:23;;;;;;;12.10;6.53;;;;;;;4.89;99.20;101974.75;5027192;28;20496;-85
2023/04/27 01:10:49;;;;;;;10.73;6.70;;;;;;;4.92;99.52;101981.63;5008042;28;20029;-85
2023/04/27 01:13:15;;;;;;;11.88;6.40;;;;;;;4.86;100.00;101974.53;5015328;28;20072;-86
2023/04/27 01:15:40;;;;;;;15.65;7.47;;;;;;;4.91;100.00;101990.25;5005541;28;20034;-85
2023/04/27 01:18:06;;;;;;;14.90;7.32;;;;;;;4.91;99.80;102001.34;5027356;28;20041;-85
2023/04/27 01:20:31;;;;;;;13.05;5.68;;;;;;;4.86;99.99;101993.97;5007905;28;20132;-86
2023/04/27 01:22:57;;;;;;;15.77;7.13;;;;;;;4.78;100.00;101997.47;5033041;28;20034;-85
2023/04/27 01:25:23;;;;;;;14.98;7.13;;;;;;;4.84;99.07;101982.34;5010022;28;20391;-86
2023/04/27 01:27:49;;;;;;;13.95;6.45;;;;;;;4.67;100.00;101986.59;5032868;28;20072;-86
2023/04/27 01:30:14;;;;;;;11.38;6.25;;;;;;;4.66;100.00;101984.97;5011668;28;20436;-86
2023/04/27 01:32:40;;;;;;;11.38;6.05;;;;;;;4.72;100.00;101980.09;5006211;28;20039;-86
2023/04/27 01:35:06;;;;;;;12.27;7.10;;;;;;;4.74;100.00;101991.72;5009826;28;20021;-85
2023/04/27 01:37:32;;;;;;;19.60;6.57;;;;;;;4.73;100.00;101994.81;5010022;28;20314;-85
2023/04/27 01:39:57;;;;;;;12.70;7.22;;;;;;;4.68;100.00;101992.97;5003918;28;20044;-86
2023/04/27 01:42:22;;;;;;;11.52;6.50;;;;;;;4.67;100.00;101988.56;5027844;28;20041;-86
2023/04/27 01:44:48;;;;;;;12.20;5.68;;;;;;;4.64;99.77;101976.13;5013518;28;20049;-85
2023/04/27 01:47:17;;;;;;;11.30;5.95;;;;;;;4.66;99.41;101996.06;5012116;28;20025;-85
2023/04/27 01:49:42;;;;;;;12.55;6.20;;;;;;;4.67;100.00;102000.47;5003022;28;20072;-86
2023/04/27 01:52:08;;;;;;;12.50;5.97;;;;;;;4.59;100.00;101995.63;5000873;28;20117;-85
2023/04/27 01:54:33;;;;;;;13.88;6.78;;;;;;;4.57;100.00;102000.66;4997517;28;20037;-85
2023/04/27 01:57:00;;;;;;;15.00;5.55;;;;;;;4.50;100.00;101994.72;5014903;28;20029;-85
2023/04/27 01:59:25;;;;;;;12.85;6.18;;;;;;;4.44;100.00;101994.00;4993161;28;20481;-86
2023/04/27 02:01:51;;;;;;;11.82;6.28;;;;;;;4.48;100.00;101988.66;4998798;28;20021;-85
2023/04/27 02:04:16;;;;;;;12.90;6.18;;;;;;;4.45;100.00;101995.66;5007582;28;20483;-85
2023/04/27 02:06:42;;;;;;;13.57;5.75;;;;;;;4.52;100.00;102006.34;5007035;28;20045;-85
2023/04/27 02:09:08;;;;;;;12.48;7.40;;;;;;;4.41;100.00;101989.09;5012760;28;20188;-86
2023/04/27 02:11:33;;;;;;;13.65;5.53;;;;;;;4.58;99.47;102002.31;5020653;28;20112;-85
2023/04/27 02:13:58;;;;;;;12.20;6.22;;;;;;;4.50;99.33;101991.97;5016220;28;20028;-86
2023/04/27 02:16:24;;;;;;;13.05;7.03;;;;;;;4.40;99.41;101992.16;5017724;28;20094;-85
2023/04/27 02:18:52;;;;;;;13.10;6.65;;;;;;;4.49;99.56;101993.09;5007933;28;20025;-85
2023/04/27 02:21:18;;;;;;;12.75;6.55;;;;;;;4.46;98.96;101985.38;5016887;28;20032;-85
2023/04/27 02:23:43;;;;;;;14.90;6.38;;;;;;;4.25;99.55;101960.84;5023102;28;20025;-86
2023/04/27 02:26:16;;;;;;;12.18;6.05;;;;;;;4.35;99.86;101978.44;5017414;28;20032;-85
2023/04/27 02:28:41;;;;;;;15.07;6.68;;;;;;;4.45;99.40;101989.31;5015997;28;20040;-85
2023/04/27 02:31:06;;;;;;;16.05;6.95;;;;;;;4.34;99.79;101971.22;5015650;28;20024;-85
2023/04/27 02:33:32;;;;;;;10.93;6.28;;;;;;;4.43;99.52;101986.03;5031674;28;20040;-86
2023/04/27 02:35:57;;;;;;;12.43;6.97;;;;;;;4.31;99.26;101980.97;5032672;28;20438;-86
2023/04/27 02:38:22;;;;;;;13.88;7.88;;;;;;;4.22;99.91;101967.03;5015843;28;20029;-85
2023/04/27 02:40:52;;;;;;;12.18;6.80;;;;;;;4.24;100.00;101973.09;5019827;28;20548;-85
2023/04/27 02:43:17;;;;;;;12.77;6.72;;;;;;;4.34;99.94;101960.13;5016750;28;20025;-85
2023/04/27 02:45:43;;;;;;;14.60;7.10;;;;;;;4.34;99.41;101968.44;5015047;28;20033;-85
2023/04/27 02:48:08;;;;;;;15.80;8.10;;;;;;;4.30;100.00;101962.72;5031874;28;20054;-86
2023/04/27 02:50:39;;;;;;;14.73;8.52;;;;;;;4.26;99.85;101965.28;5017021;28;20047;-86
2023/04/27 02:53:05;;;;;;;17.42;7.38;;;;;;;4.17;100.00;101958.81;5013992;28;20073;-88
2023/04/27 02:55:30;;;;;;;14.88;7.32;;;;;;;4.13;100.00;101930.06;5042036;28;20052;-87
2023/04/27 02:57:56;;;;;;;19.65;8.20;;;;;;;4.26;100.00;101947.84;5016641;28;20068;-87
2023/04/27 03:00:21;;;;;;;14.77;8.50;;;;;;;4.14;100.00;101940.03;5016651;28;20219;-86
2023/04/27 03:02:47;;;;;;;16.10;9.13;;;;;;;4.02;100.00;101943.31;5016549;28;20059;-87
2023/04/27 03:05:12;;;;;;;19.23;8.85;;;;;;;4.07;100.00;101923.00;5013631;28;20094;-87
2023/04/27 03:07:37;;;;;;;23.30;9.13;;;;;;;4.11;100.00;101921.25;5015297;28;20135;-87
2023/04/27 03:10:03;;;;;;;17.33;9.70;;;;;;;4.12;100.00;101920.13;5017495;28;20024;-87
2023/04/27 03:12:29;;;;;;;16.60;9.30;;;;;;;4.19;100.00;101931.59;5018503;28;20037;-87
2023/04/27 03:14:54;;;;;;;15.50;7.88;;;;;;;4.25;100.00;101932.31;5013989;28;20516;-87
2023/04/27 03:17:20;;;;;;;17.13;8.65;;;;;;;4.30;100.00;101950.78;5036175;28;20064;-87
2023/04/27 03:19:48;;;;;;;17.75;8.55;;;;;;;4.15;100.00;101943.63;5034121;28;20052;-87
2023/04/27 03:22:13;;;;;;;19.02;8.07;;;;;;;4.26;100.00;101945.06;5036032;28;20048;-87
2023/04/27 03:24:39;;;;;;;16.75;8.80;;;;;;;4.18;100.00;101945.78;5018481;28;20420;-85
2023/04/27 03:27:04;;;;;;;16.98;9.13;;;;;;;4.14;100.00;101939.22;5010313;28;20044;-86
2023/04/27 03:29:30;;;;;;;19.80;8.10;;;;;;;4.19;100.00;101939.91;5017052;28;20028;-86
2023/04/27 03:31:55;;;;;;;16.77;8.82;;;;;;;4.13;100.00;101949.47;5024889;28;20029;-86
2023/04/27 03:34:22;;;;;;;22.15;8.63;;;;;;;4.11;100.00;101962.81;5008088;28;20024;-86
2023/04/27 03:36:47;;;;;;;14.40;8.38;;;;;;;4.01;100.00;101957.47;5021164;28;20485;-87
2023/04/27 03:39:13;;;;;;;18.35;8.25;;;;;;;4.07;100.00;101964.56;5024709;28;20059;-86
2023/04/27 03:41:38;;;;;;;18.80;8.90;;;;;;;4.07;100.00;101978.44;5019866;28;20024;-86
2023/04/27 03:44:04;;;;;;;13.90;8.63;;;;;;;4.06;100.00;101977.56;5018474;28;20130;-86
2023/04/27 03:46:29;;;;;;;18.58;9.38;;;;;;;4.02;100.00;101961.88;5037989;28;20071;-86
2023/04/27 03:48:55;;;;;;;15.98;7.72;;;;;;;3.84;100.00;101955.31;5021308;28;20082;-86
2023/04/27 03:51:20;;;;;;;20.70;9.60;;;;;;;3.84;100.00;101953.34;5018461;28;20550;-86
2023/04/27 03:53:46;;;;;;;18.30;8.75;;;;;;;3.98;100.00;101975.50;5016169;28;20569;-85
2023/04/27 03:56:11;;;;;;;13.23;7.82;;;;;;;3.92;100.00;101981.47;5032109;28;20025;-86
2023/04/27 03:58:36;;;;;;;19.23;8.93;;;;;;;3.98;100.00;101985.78;5017071;28;20032;-86
2023/04/27 04:01:02;;;;;;;17.77;8.68;;;;;;;3.90;100.00;101973.47;5022053;28;20059;-86
2023/04/27 04:03:27;;;;;;;14.80;8.13;;;;;;;3.94;100.00;101974.47;5021954;28;20045;-86
2023/04/27 04:05:53;;;;;;;16.23;8.18;;;;;;;3.78;100.00;101959.31;5016062;28;20047;-86
2023/04/27 04:08:18;;;;;;;19.67;8.85;;;;;;;3.86;99.29;101967.72;4993303;28;20029;-86
2023/04/27 04:10:43;;;;;;;18.58;9.15;;;;;;;3.84;99.81;101975.50;5008792;28;20449;-85
2023/04/27 04:13:09;;;;;;;14.52;7.82;;;;;;;3.86;99.91;101976.03;5010249;28;20450;-85
2023/04/27 04:15:34;;;;;;;16.75;7.70;;;;;;;3.82;99.64;101960.34;4987255;28;20075;-85
2023/04/27 04:18:00;;;;;;;17.45;9.25;;;;;;;3.87;99.61;101966.56;4997685;28;20915;-85
2023/04/27 04:20:25;;;;;;;15.15;7.88;;;;;;;3.86;99.77;101978.81;5017617;28;20548;-85
2023/04/27 04:22:51;;;;;;;15.18;7.75;;;;;;;3.86;100.00;101978.81;5003161;28;20469;-85
2023/04/27 04:25:16;;;;;;;13.25;7.95;;;;;;;3.77;100.00;101979.81;5010494;28;20180;-85
2023/04/27 04:27:42;;;;;;;13.90;7.75;;;;;;;3.72;100.00;101977.13;5022883;28;20021;-85
2023/04/27 04:30:08;;;;;;;16.77;7.93;;;;;;;3.84;100.00;101974.69;5012154;28;20025;-85
2023/04/27 04:32:36;;;;;;;18.50;8.45;;;;;;;3.66;100.00;101968.91;5018627;28;21159;-85
2023/04/27 04:35:04;;;;;;;19.52;8.27;;;;;;;3.75;100.00;101971.78;4993775;28;20029;-85
2023/04/27 04:37:31;;;;;;;13.00;7.50;;;;;;;3.64;100.00;101959.25;4993783;28;20039;-85
2023/04/27 04:39:57;;;;;;;18.42;9.95;;;;;;;3.62;100.00;101969.81;5009182;28;20030;-85
2023/04/27 04:42:22;;;;;;;22.70;10.23;;;;;;;3.77;100.00;101982.56;4998462;28;20106;-85
2023/04/27 04:44:48;;;;;;;13.48;7.97;;;;;;;3.82;100.00;101977.75;5000700;28;20029;-85
2023/04/27 04:47:13;;;;;;;16.23;7.88;;;;;;;3.81;100.00;101976.09;4990920;28;20057;-85
2023/04/27 04:49:39;;;;;;;17.15;9.48;;;;;;;3.82;100.00;101977.75;4999249;28;20112;-85
2023/04/27 04:52:04;;;;;;;16.80;9.02;;;;;;;3.78;100.00;101982.28;4996948;28;20025;-85
2023/04/27 04:54:30;;;;;;;14.55;8.75;;;;;;;3.83;100.00;101990.47;4993355;28;20036;-85
2023/04/27 04:56:57;;;;;;;17.92;8.02;;;;;;;3.80;100.00;102001.34;4996765;28;20096;-85
2023/04/27 04:59:22;;;;;;;15.52;8.27;;;;;;;3.74;100.00;101997.84;5010287;28;20481;-85
2023/04/27 05:01:47;;;;;;;16.35;8.02;;;;;;;3.83;100.00;102006.28;4993283;28;20018;-85
2023/04/27 05:04:13;;;;;;;18.80;9.32;;;;;;;3.80;100.00;101988.31;5012411;28;20029;-85
2023/04/27 05:06:38;;;;;;;20.30;9.35;;;;;;;3.63;100.00;101979.78;4995097;28;20084;-85
2023/04/27 05:09:05;;;;;;;14.75;7.72;;;;;;;3.64;100.00;101998.03;4998413;28;20040;-85
2023/04/27 05:11:31;;;;;;;18.67;8.45;;;;;;;3.82;100.00;102012.97;4998656;28;20393;-85
2023/04/27 05:13:56;;;;;;;16.15;8.75;;;;;;;3.71;100.00;101992.94;5001324;28;20040;-86
2023/04/27 05:16:21;;;;;;;13.60;7.20;;;;;;;3.93;100.00;102005.28;5001942;28;20025;-85
2023/04/27 05:18:46;;;;;;;17.38;8.77;;;;;;;3.93;100.00;102011.63;5002258;28;20033;-86
2023/04/27 05:21:14;;;;;;;17.23;9.40;;;;;;;3.76;100.00;101995.59;5003670;28;20037;-85
2023/04/27 05:23:39;;;;;;;16.70;8.18;;;;;;;3.84;100.00;102013.47;5001865;28;20036;-86
2023/04/27 05:26:15;;;;;;;16.90;9.07;;;;;;;3.87;100.00;102019.22;4995322;28;20124;-86
2023/04/27 05:28:40;;;;;;;11.15;6.70;;;;;;;3.88;100.00;102017.28;4998075;28;20025;-85
2023/04/27 05:31:06;;;;;;;15.82;7.80;;;;;;;3.94;100.00;102015.22;4992494;28;20030;-86
2023/04/27 05:33:31;;;;;;;16.73;8.35;;;;;;;3.90;100.00;102015.03;5017928;28;20056;-85
2023/04/27 05:35:57;;;;;;;14.15;8.25;;;;;;;4.00;100.00;102019.53;5018045;28;20057;-86
2023/04/27 05:38:22;;;;;;;14.05;8.38;;;;;;;3.92;100.00;102004.47;4998200;28;20175;-86
2023/04/27 05:40:56;;;;;;;14.40;7.22;;;;;;;4.03;100.00;102017.00;5016000;28;20037;-85
2023/04/27 05:43:22;;;;;;;18.65;8.55;;;;;;;3.99;100.00;102006.84;4997526;28;20041;-85
2023/04/27 05:45:48;;;;;;;15.05;7.68;;;;;;;4.08;100.00;102013.31;5008361;28;20029;-85
2023/04/27 05:48:13;;;;;;;15.55;8.02;;;;;;;4.13;100.00;102013.19;5008371;28;20029;-85
2023/04/27 05:50:39;;;;;;;17.35;7.72;;;;;;;4.15;100.00;102013.72;5011023;28;20151;-86
2023/04/27 05:53:04;;;;;;;14.70;7.32;;;;;;;4.13;100.00;102010.41;4997476;28;20029;-85
2023/04/27 05:55:30;;;;;;;20.45;8.63;;;;;;;4.25;100.00;102021.00;5005177;28;20273;-85
2023/04/27 05:57:55;;;;;;;15.68;6.47;;;;;;;4.31;100.00;102030.88;4994413;28;20029;-86
2023/04/27 06:00:21;;;;;;;12.05;7.38;;;;;;;4.36;100.00;102035.50;5024598;28;20041;-86
2023/04/27 06:02:47;;;;;;;15.68;7.85;;;;;;;4.42;100.00;102045.34;4999232;28;20026;-85
2023/04/27 06:05:12;;;;;;;12.85;6.88;;;;;;;4.44;100.00;102043.09;5016173;28;20029;-86
2023/04/27 06:07:38;;;;;;;15.73;8.00;;;;;;;4.35;100.00;102044.94;5039471;28;20229;-85
2023/04/27 06:10:05;;;;;;;16.08;7.28;;;;;;;4.34;100.00;102030.25;5025351;28;20167;-86
2023/04/27 06:12:31;;;;;;;14.35;6.82;;;;;;;4.33;100.00;102033.34;5018581;28;20029;-85
2023/04/27 06:14:56;;;;;;;17.70;8.23;;;;;;;4.41;100.00;102022.34;5025957;28;20041;-85
2023/04/27 06:17:22;;;;;;;21.60;8.63;;;;;;;4.46;100.00;102033.34;5015482;28;20032;-85
2023/04/27 06:19:47;;;;;;;9.93;6.45;;;;;;;4.47;100.00;102036.94;5017192;28;20024;-85
2023/04/27 06:22:12;;;;;;;14.13;6.60;;;;;;;4.56;100.00;102039.81;5020374;28;20568;-86
2023/04/27 06:24:38;;;;;;;17.25;7.03;;;;;;;4.42;100.00;102014.84;5017224;28;20064;-86
2023/04/27 06:27:03;;;;;;;11.23;6.07;;;;;;;4.39;100.00;102032.13;5017923;28;20013;-86
2023/04/27 06:29:28;;;;;;;15.52;7.68;;;;;;;4.45;100.00;102019.81;5021642;28;20024;-85
2023/04/27 06:31:54;;;;;;;10.48;5.88;;;;;;;4.46;100.00;102038.06;5020669;28;20025;-86
2023/04/27 06:34:19;;;;;;;16.10;6.65;;;;;;;4.52;100.00;102036.84;5035210;28;20033;-86
2023/04/27 06:36:44;;;;;;;10.50;5.32;;;;;;;4.63;100.00;102040.22;5025259;28;20076;-86
2023/04/27 06:39:11;;;;;;;8.95;5.00;;;;;;;4.59;100.00;102040.00;5039348;28;20112;-85
2023/04/27 06:41:36;;;;;;;15.23;6.82;;;;;;;4.65;100.00;102037.97;5013092;28;20021;-85
2023/04/27 06:44:01;;;;;;;7.57;5.10;;;;;;;4.65;100.00;102024.91;5019980;28;20175;-85
2023/04/27 06:46:27;;;;;;;8.85;5.10;;;;;;;4.92;100.00;102041.84;5016462;28;20037;-85
2023/04/27 06:48:52;;;;;;;7.55;5.10;;;;;;;5.03;100.00;102037.69;5019993;28;20489;-86
2023/04/27 06:51:17;;;;;;;8.65;4.40;;;;;;;5.20;100.00;102031.50;5019041;28;20037;-86
2023/04/27 06:53:43;;;;;;;8.80;4.47;;;;;;;5.26;100.00;102035.78;5023563;28;20051;-86
2023/04/27 06:56:10;;;;;;;10.43;4.57;;;;;;;5.32;100.00;102028.97;5021256;28;20052;-86
2023/04/27 06:58:36;;;;;;;7.40;3.47;;;;;;;5.38;100.00;102036.06;5024037;28;20090;-86
2023/04/27 07:01:02;;;;;;;8.35;4.30;;;;;;;5.39;100.00;102032.13;5023199;28;20499;-86
2023/04/27 07:03:28;;;;;;;12.02;5.60;;;;;;;5.52;100.00;102016.53;5018902;28;20358;-86
2023/04/27 07:05:55;;;;;;;8.88;4.22;;;;;;;5.67;100.00;102034.78;5022502;28;20028;-86
2023/04/27 07:08:20;;;;;;;6.75;4.07;;;;;;;5.59;98.96;102014.16;5031841;28;20443;-86
2023/04/27 07:10:46;;;;;;;5.95;3.67;;;;;;;5.85;97.77;102027.41;5024676;28;20082;-85
2023/04/27 07:13:11;;;;;;;6.57;3.63;;;;;;;5.97;97.84;102035.19;5040209;28;20028;-86
2023/04/27 07:15:37;;;;;;;7.75;4.20;;;;;;;6.00;96.71;102027.03;5027614;28;20032;-87
2023/04/27 07:18:02;;;;;;;8.05;4.28;;;;;;;6.01;97.81;102028.69;5014768;28;20033;-86
2023/04/27 07:20:28;;;;;;;9.55;4.45;;;;;;;6.06;97.28;102031.31;5011125;28;20417;-86
2023/04/27 07:22:53;;;;;;;7.93;4.25;;;;;;;6.13;95.77;102035.59;5043990;28;20064;-86
2023/04/27 07:25:19;;;;;;;7.18;3.38;;;;;;;6.17;95.84;102033.81;5020957;28;20029;-87
2023/04/27 07:27:45;;;;;;;10.02;3.85;;;;;;;6.26;94.64;102029.94;5037506;28;20072;-86
2023/04/27 07:30:13;;;;;;;8.02;4.15;;;;;;;6.28;96.05;102027.66;5034365;28;20427;-86
2023/04/27 07:32:40;;;;;;;5.95;3.28;;;;;;;6.36;93.33;102020.47;5017362;28;20043;-86
2023/04/27 07:35:06;;;;;;;8.63;3.78;;;;;;;6.71;92.66;102029.75;5024832;28;20453;-86
2023/04/27 07:37:32;;;;;;;4.03;2.75;;;;;;;6.83;89.32;102031.09;5022654;28;20035;-86
2023/04/27 07:39:58;;;;;;;6.25;3.08;;;;;;;6.72;89.74;102034.19;5019933;28;20025;-87
2023/04/27 07:42:23;;;;;;;3.65;2.65;;;;;;;6.66;90.33;102043.00;5030896;28;20439;-87
2023/04/27 07:44:49;;;;;;;7.60;3.63;;;;;;;6.66;90.89;102035.50;5027620;28;20095;-87
2023/04/27 07:47:17;;;;;;;8.32;3.55;;;;;;;6.80;90.47;102042.88;5020928;28;20055;-87
2023/04/27 07:49:44;;;;;;;10.98;3.78;;;;;;;7.05;88.61;102041.28;5030327;28;20033;-87
2023/04/27 07:52:10;;;;;;;7.93;3.80;;;;;;;7.50;93.29;102035.41;5016575;28;20481;-87
2023/04/27 07:54:35;;;;;;;8.10;3.45;;;;;;;7.08;87.78;102038.69;5040084;28;20021;-89
2023/04/27 07:57:06;;;;;;;8.57;3.38;;;;;;;7.21;88.19;102047.19;5024281;28;20370;-87
2023/04/27 07:59:31;;;;;;;6.70;2.97;;;;;;;9.19;86.51;102039.69;5018260;28;20124;-83
2023/04/27 08:01:57;;;;;;;4.93;3.17;;;;;;;7.90;82.90;102036.00;5020368;28;20152;-88
2023/04/27 08:04:22;;;;;;;4.43;3.05;;;;;;;7.74;83.71;102035.72;5034707;28;20064;-89
2023/04/27 08:06:47;;;;;;;5.47;2.90;;;;;;;7.78;83.53;102026.69;5028821;28;20091;-89
2023/04/27 08:09:13;;;;;;;5.85;3.17;;;;;;;7.86;82.46;102043.41;5027327;28;20028;-90
2023/04/27 08:11:38;;;;;;;7.22;3.40;;;;;;;7.81;83.08;102049.16;5020679;28;20161;-89
2023/04/27 08:14:03;;;;;;;5.53;3.00;;;;;;;8.01;80.12;102042.06;5042491;28;20028;-86
2023/04/27 08:16:30;;;;;;;8.85;3.08;;;;;;;8.17;81.36;102039.53;5031033;28;20040;-86
2023/04/27 08:18:55;;;;;;;5.25;3.70;;;;;;;8.22;80.29;102044.97;5020786;28;20025;-86
2023/04/27 08:21:20;;;;;;;6.78;3.28;;;;;;;8.14;78.68;102040.22;5019044;28;20040;-87
2023/04/27 08:23:46;;;;;;;7.05;3.15;;;;;;;8.28;80.66;102032.44;5017575;28;20025;-86
2023/04/27 08:26:15;;;;;;;7.90;3.25;;;;;;;8.22;79.25;102032.97;5037876;28;20090;-87
2023/04/27 08:28:40;;;;;;;8.15;3.75;;;;;;;8.45;78.42;102050.31;5016654;28;20029;-87
2023/04/27 08:31:06;;;;;;;11.43;3.95;;;;;;;8.60;76.29;102041.38;5025238;28;20036;-86
2023/04/27 08:33:31;;;;;;;6.97;2.72;;;;;;;8.42;73.71;102037.03;5030015;28;20362;-88
2023/04/27 08:35:57;;;;;;;4.63;2.85;;;;;;;8.55;73.06;102033.19;5017887;28;20153;-88
2023/04/27 08:38:22;;;;;;;4.68;2.92;;;;;;;8.78;71.11;102044.88;5037031;28;20075;-88
2023/04/27 08:40:47;;;;;;;4.47;3.10;;;;;;;8.62;73.81;102033.50;5020491;28;20135;-86
2023/04/27 08:43:13;;;;;;;5.55;3.53;;;;;;;8.88;71.03;102040.91;5017455;28;20037;-87
2023/04/27 08:45:47;;;;;;;4.90;3.00;;;;;;;9.19;70.27;102045.28;5017072;28;20039;-86
2023/04/27 08:48:12;;;;;;;4.03;2.42;;;;;;;9.10;70.17;102028.59;5030495;28;20134;-87
2023/04/27 08:50:42;;;;;;;6.30;3.28;;;;;;;9.19;65.54;102028.50;5014253;28;20029;-86
2023/04/27 08:53:24;;;;;;;7.32;3.40;;;;;;;9.19;67.05;102043.28;5036566;28;20508;-86
2023/04/27 08:55:50;;;;;;;5.25;3.35;;;;;;;9.07;63.54;102034.88;5015690;28;20029;-87
2023/04/27 08:58:15;;;;;;;5.15;2.83;;;;;;;9.22;64.18;102033.44;5013041;28;20063;-88
2023/04/27 09:00:42;;;;;;;4.88;2.70;;;;;;;9.27;64.08;102038.81;5035887;28;20029;-83
2023/04/27 09:03:20;;;;;;;5.68;2.97;;;;;;;9.38;68.12;102030.81;5022617;28;20044;-84
2023/04/27 09:05:46;;;;;;;7.25;3.13;;;;;;;10.77;79.34;102035.72;5026545;28;20031;-86
2023/04/27 09:08:12;;;;;;;6.00;3.10;;;;;;;9.73;65.53;102037.75;5022362;28;20069;-81
2023/04/27 09:10:44;;;;;;;8.10;3.65;;;;;;;9.44;67.43;102035.88;5043548;28;20048;-81
2023/04/27 09:13:10;;;;;;;3.17;2.50;;;;;;;9.44;63.65;102030.28;5041444;28;20083;-81
2023/04/27 09:15:46;;;;;;;7.65;3.38;;;;;;;9.73;63.65;102042.53;5041889;28;20410;-80
2023/04/27 09:18:16;;;;;;;4.43;2.85;;;;;;;9.93;64.96;102029.66;5029839;28;20409;-81
2023/04/27 09:20:43;;;;;;;3.97;2.58;;;;;;;9.96;66.16;102028.97;5041642;28;20379;-80
2023/04/27 09:23:09;;;;;;;7.18;2.33;;;;;;;10.08;62.01;102031.00;5038177;28;20477;-80
2023/04/27 09:25:34;;;;;;;4.05;2.78;;;;;;;10.13;60.42;102036.34;5036086;28;20079;-80
2023/04/27 09:28:00;;;;;;;6.50;3.30;;;;;;;10.16;60.47;102027.25;5041208;28;20049;-81
2023/04/27 09:30:27;;;;;;;5.93;3.28;;;;;;;10.09;60.82;102033.41;5043153;28;20029;-81
2023/04/27 09:32:58;;;;;;;5.03;2.92;;;;;;;10.10;59.72;102039.84;5032866;28;20444;-81
2023/04/27 09:35:32;;;;;;;4.50;2.47;;;;;;;9.91;61.88;102030.00;5032467;28;20435;-81
2023/04/27 09:37:59;;;;;;;6.85;3.30;;;;;;;10.15;59.88;102029.22;5055529;28;20090;-80
2023/04/27 09:40:28;;;;;;;8.38;3.22;;;;;;;10.69;58.00;102019.03;5039906;28;20060;-80
2023/04/27 09:42:55;;;;;;;5.88;3.22;;;;;;;10.52;57.43;102022.88;5045985;28;20246;-81
2023/04/27 09:45:22;;;;;;;3.05;2.75;;;;;;;10.54;59.27;102031.75;5025621;28;20397;-81
2023/04/27 09:47:47;;;;;;;5.38;3.17;;;;;;;10.43;56.70;102019.38;5044556;28;20449;-81
2023/04/27 09:50:13;;;;;;;5.30;3.17;;;;;;;10.47;57.61;102028.72;5047452;28;20089;-81
2023/04/27 09:52:39;;;;;;;4.60;3.10;;;;;;;10.55;57.05;102022.19;5031318;28;20029;-81
2023/04/27 09:55:12;;;;;;;3.60;2.58;;;;;;;10.54;55.03;102003.75;5048277;28;20099;-81
2023/04/27 09:57:52;;;;;;;3.13;2.28;;;;;;;10.62;54.96;102011.22;5026165;28;20021;-81
2023/04/27 10:00:30;;;;;;;9.75;4.80;;;;;;;10.87;52.91;102012.00;5030592;28;20028;-81
2023/04/27 10:03:18;;;;;;;12.80;6.20;;;;;;;11.13;53.90;102011.63;5047332;28;20497;-81
2023/04/27 10:06:12;;;;;;;5.53;2.33;;;;;;;11.03;53.23;102008.50;5030835;28;20323;-81
2023/04/27 10:08:38;;;;;;;4.15;2.70;;;;;;;11.29;54.97;102003.28;5029561;28;20033;-81
2023/04/27 10:11:18;;;;;;;4.00;3.22;;;;;;;11.31;54.97;101998.13;5049280;28;20037;-81
2023/04/27 10:13:52;;;;;;;4.90;3.00;;;;;;;11.26;52.27;102000.34;5023434;28;20032;-81
2023/04/27 10:16:18;;;;;;;5.93;2.78;;;;;;;10.95;54.82;102001.84;5047300;28;20057;-81
2023/04/27 10:18:53;;;;;;;5.47;2.72;;;;;;;11.24;56.11;101991.53;5047820;28;20052;-81
2023/04/27 10:21:19;;;;;;;3.47;3.17;;;;;;;11.60;56.46;101987.75;5043102;28;20029;-81
2023/04/27 10:23:50;;;;;;;4.18;2.80;;;;;;;11.77;51.87;102003.44;5030615;28;20393;-81
2023/04/27 10:26:26;;;;;;;3.63;3.10;;;;;;;11.63;57.91;101997.44;5049477;28;20044;-81
2023/04/27 10:29:06;;;;;;;5.70;3.53;;;;;;;11.37;53.27;101995.91;5045041;28;20036;-81
2023/04/27 10:31:32;;;;;;;7.55;2.95;;;;;;;11.47;53.09;101992.59;5032857;28;20090;-81
2023/04/27 10:34:08;;;;;;;5.13;2.88;;;;;;;11.57;51.72;101988.44;5049252;28;20024;-81
2023/04/27 10:36:36;;;;;;;6.82;2.88;;;;;;;11.74;50.02;101992.91;5044380;28;20628;-81
2023/04/27 10:39:03;;;;;;;4.38;3.25;;;;;;;11.82;62.25;101994.75;5048145;28;20040;-81
2023/04/27 10:41:35;;;;;;;7.38;3.05;;;;;;;12.58;51.13;101991.88;5041092;28;20079;-81
2023/04/27 10:44:33;;;;;;;9.25;3.30;;;;;;;12.59;49.52;101993.53;5037653;28;20025;-81
2023/04/27 10:47:01;;;;;;;5.65;3.15;;;;;;;12.93;50.21;101993.91;5003342;28;20029;-82
2023/04/27 10:49:28;;;;;;;4.60;3.00;;;;;;;12.70;49.72;101997.41;5029667;28;20098;-82
2023/04/27 10:51:57;;;;;;;5.45;3.05;;;;;;;12.47;52.09;101999.25;5030333;28;20033;-82
2023/04/27 10:54:28;;;;;;;5.10;2.72;;;;;;;13.40;54.74;101996.56;5021717;28;20049;-83
2023/04/27 10:57:02;;;;;;;4.97;3.38;;;;;;;12.93;47.90;101988.28;5013625;28;20652;-82
2023/04/27 10:59:28;;;;;;;6.70;3.53;;;;;;;12.71;51.14;101990.63;5032761;28;20037;-82
2023/04/27 11:01:53;;;;;;;5.70;2.35;;;;;;;13.57;56.11;101984.03;4999915;28;20097;-86
2023/04/27 11:04:18;;;;;;;3.95;2.92;;;;;;;13.82;52.94;101994.97;5014487;28;20385;-87
2023/04/27 11:06:45;;;;;;;5.63;2.63;;;;;;;15.27;50.76;101996.91;5035118;28;20037;-88
2023/04/27 11:09:12;;;;;;;3.85;2.65;;;;;;;15.62;52.68;101984.41;5019801;28;20044;-87
2023/04/27 11:11:37;;;;;;;5.32;4.03;;;;;;;14.41;54.56;101992.78;5031089;28;20078;-89
2023/04/27 11:14:02;;;;;;;8.20;3.17;;;;;;;15.05;51.73;101978.84;5019892;28;20040;-82
2023/04/27 11:16:30;;;;;;;3.65;2.60;;;;;;;15.02;52.28;101979.63;5029134;28;20032;-84
2023/04/27 11:18:55;;;;;;;4.22;2.35;;;;;;;15.44;52.30;101978.56;5023309;28;20550;-83
2023/04/27 11:21:21;;;;;;;5.57;3.45;;;;;;;15.56;47.45;101975.47;5019530;28;20032;-83